createdAt,value
2023-03-24T00:01:07.638Z,11.90
2023-03-24T00:03:34.533Z,11.80
2023-03-24T00:06:04.526Z,11.90
2023-03-24T00:08:36.443Z,11.80
2023-03-24T00:11:06.538Z,11.80
2023-03-24T00:13:38.064Z,11.70
2023-03-24T00:16:10.744Z,11.70
2023-03-24T00:18:39.210Z,11.70
2023-03-24T00:21:07.695Z,11.70
2023-03-24T00:23:35.218Z,11.60
2023-03-24T00:26:05.180Z,11.60
2023-03-24T00:28:33.542Z,11.50
2023-03-24T00:31:02.099Z,11.60
2023-03-24T00:33:35.002Z,11.50
2023-03-24T00:36:06.795Z,11.60
2023-03-24T00:38:34.841Z,11.60
2023-03-24T00:41:01.999Z,11.60
2023-03-24T00:43:29.447Z,11.60
2023-03-24T00:46:01.881Z,11.60
2023-03-24T00:48:29.917Z,11.60
2023-03-24T00:50:56.972Z,11.50
2023-03-24T00:53:25.805Z,11.50
2023-03-24T00:55:52.533Z,11.40
2023-03-24T00:58:19.706Z,11.40
2023-03-24T01:00:48.922Z,11.50
2023-03-24T01:03:16.556Z,11.40
2023-03-24T01:05:48.484Z,11.40
2023-03-24T01:08:20.254Z,11.40
2023-03-24T01:10:53.250Z,11.50
2023-03-24T01:13:25.487Z,11.40
2023-03-24T01:15:52.853Z,11.50
2023-03-24T01:18:20.519Z,11.40
2023-03-24T01:20:49.134Z,11.50
2023-03-24T01:23:22.568Z,11.50
2023-03-24T01:25:50.457Z,11.50
2023-03-24T01:28:23.295Z,11.50
2023-03-24T01:30:53.922Z,11.50
2023-03-24T01:33:21.352Z,11.50
2023-03-24T01:35:48.366Z,11.50
2023-03-24T01:38:15.925Z,11.60
2023-03-24T01:40:45.937Z,11.60
2023-03-24T01:43:27.184Z,11.70
2023-03-24T01:46:22.839Z,11.80
2023-03-24T01:49:04.760Z,11.80
2023-03-24T01:51:42.104Z,11.90
2023-03-24T01:54:09.802Z,11.90
2023-03-24T01:56:42.712Z,11.90
2023-03-24T01:59:15.533Z,11.90
2023-03-24T02:01:47.698Z,11.90
2023-03-24T02:04:42.732Z,11.90
2023-03-24T02:07:28.127Z,12.00
2023-03-24T02:09:54.839Z,11.90
2023-03-24T02:12:21.975Z,11.90
2023-03-24T02:14:49.518Z,11.90
2023-03-24T02:17:34.785Z,11.80
2023-03-24T02:20:12.300Z,11.80
2023-03-24T02:22:57.958Z,11.80
2023-03-24T02:25:46.731Z,11.80
2023-03-24T02:28:41.245Z,11.80
2023-03-24T02:31:17.250Z,11.80
2023-03-24T02:34:29.160Z,11.80
2023-03-24T02:37:28.033Z,11.80
2023-03-24T02:40:34.326Z,11.80
2023-03-24T02:43:16.664Z,11.70
2023-03-24T02:46:14.341Z,11.70
2023-03-24T02:48:58.326Z,11.70
2023-03-24T02:51:47.739Z,11.70
2023-03-24T02:54:22.476Z,11.70
2023-03-24T02:57:14.899Z,11.70
2023-03-24T03:00:10.079Z,11.70
2023-03-24T03:03:07.523Z,11.70
2023-03-24T03:05:39.741Z,11.80
2023-03-24T03:08:12.120Z,11.80
2023-03-24T03:10:43.256Z,11.80
2023-03-24T03:13:21.551Z,11.90
2023-03-24T03:15:53.001Z,11.90
2023-03-24T03:18:33.114Z,11.90
2023-03-24T03:21:06.144Z,11.90
2023-03-24T03:23:45.706Z,12.00
2023-03-24T03:26:19.654Z,12.00
2023-03-24T03:28:57.666Z,12.00
2023-03-24T03:31:31.453Z,12.00
2023-03-24T03:34:20.360Z,12.00
2023-03-24T03:36:49.786Z,12.10
2023-03-24T03:39:29.378Z,12.10
2023-03-24T03:41:59.022Z,12.10
2023-03-24T03:44:26.409Z,12.10
2023-03-24T03:46:53.374Z,12.10
2023-03-24T03:49:28.570Z,12.00
2023-03-24T03:51:57.228Z,12.00
2023-03-24T03:54:27.077Z,11.90
2023-03-24T03:56:54.876Z,11.90
2023-03-24T03:59:35.623Z,11.80
2023-03-24T04:02:19.612Z,11.80
2023-03-24T04:05:28.120Z,11.80
2023-03-24T04:08:28.573Z,11.80
2023-03-24T04:11:08.751Z,11.70
2023-03-24T04:14:12.148Z,11.80
2023-03-24T04:16:47.400Z,11.80
2023-03-24T04:19:36.782Z,11.80
2023-03-24T04:22:22.103Z,11.80
2023-03-24T04:25:07.408Z,11.80
2023-03-24T04:27:51.094Z,11.90
2023-03-24T04:30:32.920Z,12.00
2023-03-24T04:33:06.714Z,12.00
2023-03-24T04:35:43.342Z,12.00
2023-03-24T04:38:25.724Z,12.10
2023-03-24T04:41:07.782Z,12.20
2023-03-24T04:43:36.511Z,12.20
2023-03-24T04:46:06.880Z,12.30
2023-03-24T04:48:41.406Z,12.50
2023-03-24T04:51:12.704Z,12.50
2023-03-24T04:53:52.969Z,12.50
2023-03-24T04:56:40.244Z,12.60
2023-03-24T04:59:12.991Z,12.60
2023-03-24T05:01:40.489Z,12.60
2023-03-24T05:04:28.242Z,12.60
2023-03-24T05:06:58.874Z,12.80
2023-03-24T05:09:27.679Z,12.70
2023-03-24T05:11:54.352Z,12.60
2023-03-24T05:14:23.434Z,12.60
2023-03-24T05:16:50.689Z,12.60
2023-03-24T05:19:19.379Z,12.60
2023-03-24T05:21:47.251Z,12.60
2023-03-24T05:24:13.980Z,12.70
2023-03-24T05:26:41.152Z,12.70
2023-03-24T05:29:13.885Z,12.70
2023-03-24T05:31:40.818Z,12.50
2023-03-24T05:34:09.672Z,12.50
2023-03-24T05:36:56.718Z,12.40
2023-03-24T05:39:23.930Z,12.50
2023-03-24T05:41:57.429Z,12.50
2023-03-24T05:44:24.174Z,12.50
2023-03-24T05:47:03.282Z,12.40
2023-03-24T05:49:30.222Z,12.40
2023-03-24T05:51:57.062Z,12.30
2023-03-24T05:54:23.987Z,12.20
2023-03-24T05:56:57.832Z,12.20
2023-03-24T05:59:33.954Z,12.20
2023-03-24T06:02:26.893Z,12.10
2023-03-24T06:05:04.079Z,12.10
2023-03-24T06:07:32.112Z,12.10
2023-03-24T06:10:02.991Z,11.90
2023-03-24T06:12:37.751Z,11.70
2023-03-24T06:15:05.726Z,11.60
2023-03-24T06:17:32.687Z,11.50
2023-03-24T06:20:11.750Z,11.50
2023-03-24T06:22:44.993Z,11.50
2023-03-24T06:25:16.961Z,11.60
2023-03-24T06:27:53.667Z,11.70
2023-03-24T06:30:23.392Z,11.70
2023-03-24T06:32:51.245Z,11.70
2023-03-24T06:35:19.495Z,11.90
2023-03-24T06:37:52.046Z,11.90
2023-03-24T06:40:19.554Z,12.00
2023-03-24T06:42:51.509Z,12.00
2023-03-24T06:45:18.413Z,12.00
2023-03-24T06:47:47.366Z,12.00
2023-03-24T06:50:15.387Z,12.00
2023-03-24T06:52:42.274Z,12.00
2023-03-24T06:55:11.781Z,12.00
2023-03-24T06:57:38.566Z,12.10
2023-03-24T07:00:34.788Z,12.30
2023-03-24T07:03:23.441Z,12.20
2023-03-24T07:06:10.634Z,12.10
2023-03-24T07:08:38.781Z,12.70
2023-03-24T07:11:10.127Z,12.90
2023-03-24T07:13:40.458Z,13.00
2023-03-24T07:16:08.332Z,13.20
2023-03-24T07:18:37.641Z,12.90
2023-03-24T07:21:07.329Z,12.40
2023-03-24T07:23:35.691Z,12.40
2023-03-24T07:26:08.618Z,12.60
2023-03-24T07:28:54.945Z,12.50
2023-03-24T07:31:39.261Z,12.10
2023-03-24T07:34:09.208Z,12.00
2023-03-24T07:36:37.992Z,11.90
2023-03-24T07:39:07.055Z,11.90
2023-03-24T07:41:36.369Z,11.90
2023-03-24T07:44:09.127Z,12.40
2023-03-24T07:46:48.936Z,12.40
2023-03-24T07:49:19.736Z,12.30
2023-03-24T07:52:01.641Z,12.20
2023-03-24T07:54:34.186Z,12.10
2023-03-24T07:57:01.728Z,11.70
2023-03-24T07:59:28.704Z,11.80
2023-03-24T08:02:04.200Z,11.80
2023-03-24T08:04:56.358Z,12.00
2023-03-24T08:07:55.509Z,12.00
2023-03-24T08:10:28.592Z,12.60
2023-03-24T08:12:56.580Z,13.20
2023-03-24T08:15:24.091Z,12.90
2023-03-24T08:17:51.678Z,12.30
2023-03-24T08:20:21.200Z,12.30
2023-03-24T08:22:54.045Z,12.40
2023-03-24T08:25:22.747Z,12.40
2023-03-24T08:27:49.528Z,12.30
2023-03-24T08:30:22.230Z,12.30
2023-03-24T08:32:54.317Z,12.60
2023-03-24T08:35:24.197Z,12.80
2023-03-24T08:37:51.546Z,13.10
2023-03-24T08:40:23.290Z,13.10
2023-03-24T08:42:52.666Z,13.00
2023-03-24T08:45:21.393Z,12.60
2023-03-24T08:47:50.502Z,12.50
2023-03-24T08:50:19.060Z,12.80
2023-03-24T08:52:48.925Z,12.90
2023-03-24T08:55:17.490Z,12.90
2023-03-24T08:57:44.602Z,12.80
2023-03-24T09:00:15.748Z,13.00
2023-03-24T09:02:47.536Z,13.30
2023-03-24T09:05:15.541Z,13.60
2023-03-24T09:07:42.713Z,13.30
2023-03-24T09:10:10.684Z,13.10
2023-03-24T09:12:38.636Z,13.30
2023-03-24T09:15:07.866Z,13.20
2023-03-24T09:17:35.193Z,13.30
2023-03-24T09:20:02.456Z,13.20
2023-03-24T09:22:29.189Z,13.00
2023-03-24T09:24:55.856Z,12.80
2023-03-24T09:27:23.290Z,13.20
2023-03-24T09:29:49.988Z,13.90
2023-03-24T09:32:16.622Z,14.50
2023-03-24T09:34:43.270Z,14.50
2023-03-24T09:37:09.892Z,14.30
2023-03-24T09:39:36.900Z,14.20
2023-03-24T09:42:05.670Z,14.10
2023-03-24T09:44:38.823Z,14.10
2023-03-24T09:47:33.567Z,14.30
2023-03-24T09:50:15.903Z,14.10
2023-03-24T09:52:47.371Z,13.70
2023-03-24T09:55:21.413Z,14.30
2023-03-24T09:57:50.540Z,14.80
2023-03-24T10:00:32.889Z,15.00
2023-03-24T10:03:10.367Z,14.70
2023-03-24T10:05:42.789Z,14.40
2023-03-24T10:08:21.502Z,14.20
2023-03-24T10:11:04.259Z,13.90
2023-03-24T10:14:04.193Z,13.80
2023-03-24T10:16:50.298Z,13.70
2023-03-24T10:19:48.551Z,13.40
2023-03-24T10:22:30.205Z,13.90
2023-03-24T10:25:37.671Z,14.50
2023-03-24T10:28:16.306Z,15.10
2023-03-24T10:30:45.320Z,15.50
2023-03-24T10:33:14.867Z,15.70
2023-03-24T10:35:46.174Z,15.90
2023-03-24T10:38:21.426Z,15.60
2023-03-24T10:40:49.468Z,15.10
2023-03-24T10:43:18.755Z,14.60
2023-03-24T10:45:49.446Z,14.10
2023-03-24T10:48:44.435Z,14.00
2023-03-24T10:51:26.707Z,14.10
2023-03-24T10:54:17.112Z,14.10
2023-03-24T10:56:52.444Z,14.30
2023-03-24T10:59:35.618Z,14.40
2023-03-24T11:02:05.237Z,14.20
2023-03-24T11:04:33.660Z,13.90
2023-03-24T11:07:07.429Z,13.90
2023-03-24T11:09:45.909Z,13.70
2023-03-24T11:12:28.770Z,13.80
2023-03-24T11:15:17.650Z,13.70
2023-03-24T11:17:56.693Z,13.60
2023-03-24T11:20:32.223Z,13.70
2023-03-24T11:23:06.564Z,13.90
2023-03-24T11:25:37.001Z,14.00
2023-03-24T11:28:11.645Z,13.90
2023-03-24T11:30:47.772Z,13.90
2023-03-24T11:33:19.488Z,13.90
2023-03-24T11:38:17.960Z,13.90
2023-03-24T11:41:02.371Z,14.40
2023-03-24T11:43:29.212Z,14.40
2023-03-24T11:46:08.061Z,14.30
2023-03-24T11:48:52.966Z,14.30
2023-03-24T11:51:35.838Z,14.50
2023-03-24T11:54:11.782Z,15.10
2023-03-24T11:56:54.933Z,15.60
2023-03-24T11:59:37.354Z,15.50
2023-03-24T12:02:14.330Z,15.30
2023-03-24T12:05:30.610Z,15.20
2023-03-24T12:08:27.568Z,16.00
2023-03-24T12:11:31.545Z,16.50
2023-03-24T12:14:01.834Z,15.60
2023-03-24T12:16:51.746Z,15.20
2023-03-24T12:19:35.450Z,14.90
2023-03-24T12:22:24.952Z,15.00
2023-03-24T12:25:17.990Z,15.10
2023-03-24T12:27:52.414Z,15.00
2023-03-24T12:30:28.745Z,15.40
2023-03-24T12:33:14.466Z,15.60
2023-03-24T12:36:11.274Z,15.30
2023-03-24T12:39:09.613Z,15.30
2023-03-24T12:41:54.158Z,15.20
2023-03-24T12:44:45.441Z,15.10
2023-03-24T12:47:42.551Z,15.70
2023-03-24T12:50:26.657Z,16.60
2023-03-24T12:55:47.630Z,16.90
2023-03-24T12:58:33.220Z,17.30
2023-03-24T13:01:24.084Z,17.00
2023-03-24T13:03:59.277Z,16.50
2023-03-24T13:06:54.741Z,15.80
2023-03-24T13:09:46.186Z,16.00
2023-03-24T13:12:23.451Z,15.60
2023-03-24T13:15:01.948Z,15.00
2023-03-24T13:17:41.944Z,14.90
2023-03-24T13:20:14.658Z,14.90
2023-03-24T13:22:42.257Z,15.10
2023-03-24T13:25:31.336Z,15.10
2023-03-24T13:28:04.369Z,15.00
2023-03-24T13:30:43.011Z,15.00
2023-03-24T13:33:29.901Z,14.90
2023-03-24T13:36:39.030Z,14.80
2023-03-24T13:39:10.067Z,14.70
2023-03-24T13:41:39.725Z,14.40
2023-03-24T13:44:08.377Z,14.50
2023-03-24T13:46:40.890Z,14.50
2023-03-24T13:49:13.566Z,14.40
2023-03-24T13:51:47.001Z,14.30
2023-03-24T13:54:29.289Z,14.20
2023-03-24T13:57:26.544Z,13.90
2023-03-24T14:00:17.573Z,12.70
2023-03-24T14:02:52.896Z,11.90
2023-03-24T14:05:22.726Z,12.50
2023-03-24T14:08:07.219Z,13.20
2023-03-24T14:10:40.219Z,14.00
2023-03-24T14:13:12.888Z,14.20
2023-03-24T14:15:55.429Z,14.30
2023-03-24T14:18:25.482Z,14.40
2023-03-24T14:21:02.497Z,14.00
2023-03-24T14:23:48.072Z,13.60
2023-03-24T14:26:20.904Z,13.60
2023-03-24T14:28:48.502Z,14.10
2023-03-24T14:31:18.442Z,13.80
2023-03-24T14:34:02.990Z,13.60
2023-03-24T14:36:39.292Z,13.40
2023-03-24T14:39:11.965Z,13.30
2023-03-24T14:41:41.779Z,13.20
2023-03-24T14:44:08.539Z,13.30
2023-03-24T14:46:41.043Z,13.50
2023-03-24T14:49:25.835Z,13.80
2023-03-24T14:52:00.864Z,14.40
2023-03-24T14:54:44.033Z,14.80
2023-03-24T14:57:20.541Z,14.90
2023-03-24T15:00:24.234Z,14.80
2023-03-24T15:02:56.928Z,14.40
2023-03-24T15:05:31.291Z,14.30
2023-03-24T15:08:37.202Z,14.10
2023-03-24T15:11:06.975Z,13.90
2023-03-24T15:13:48.529Z,13.90
2023-03-24T15:16:15.392Z,13.80
2023-03-24T15:19:01.905Z,13.60
2023-03-24T15:21:54.830Z,13.40
2023-03-24T15:24:21.662Z,13.30
2023-03-24T15:26:56.171Z,13.10
2023-03-24T15:29:23.895Z,13.10
2023-03-24T15:31:51.154Z,12.90
2023-03-24T15:34:50.396Z,12.70
2023-03-24T15:37:42.879Z,12.30
2023-03-24T15:40:32.534Z,10.90
2023-03-24T15:43:06.723Z,10.00
2023-03-24T15:45:43.521Z,9.70
2023-03-24T15:48:16.916Z,9.50
2023-03-24T15:51:06.222Z,9.40
2023-03-24T15:53:57.117Z,9.40
2023-03-24T15:56:31.716Z,9.30
2023-03-24T15:59:15.405Z,9.30
2023-03-24T16:01:45.132Z,9.30
2023-03-24T16:04:20.347Z,9.30
2023-03-24T16:06:53.965Z,9.30
2023-03-24T16:09:27.341Z,9.30
2023-03-24T16:11:54.199Z,9.60
2023-03-24T16:14:26.490Z,10.30
2023-03-24T16:16:55.013Z,10.90
2023-03-24T16:19:21.876Z,11.40
2023-03-24T16:21:48.552Z,11.20
2023-03-24T16:24:15.234Z,11.00
2023-03-24T16:26:42.107Z,10.80
2023-03-24T16:29:16.698Z,10.60
2023-03-24T16:31:45.271Z,11.00
2023-03-24T16:34:11.906Z,11.40
2023-03-24T16:36:39.165Z,11.80
2023-03-24T16:39:13.542Z,11.70
2023-03-24T16:41:40.273Z,11.20
2023-03-24T16:44:06.974Z,10.80
2023-03-24T16:46:34.915Z,10.60
2023-03-24T16:49:06.953Z,10.40
2023-03-24T16:51:33.840Z,10.20
2023-03-24T16:54:00.681Z,10.20
2023-03-24T16:56:27.479Z,10.10
2023-03-24T16:58:55.247Z,10.10
2023-03-24T17:01:37.973Z,10.00
2023-03-24T17:04:12.316Z,10.00
2023-03-24T17:06:42.011Z,10.00
2023-03-24T17:09:09.927Z,10.00
2023-03-24T17:11:39.206Z,10.00
2023-03-24T17:14:08.410Z,9.90
2023-03-24T17:16:37.029Z,9.90
2023-03-24T17:19:07.249Z,10.00
2023-03-24T17:21:37.134Z,9.90
2023-03-24T17:24:04.544Z,10.00
2023-03-24T17:26:32.262Z,9.90
2023-03-24T17:28:58.984Z,10.00
2023-03-24T17:31:25.754Z,9.90
2023-03-24T17:33:52.416Z,9.90
2023-03-24T17:36:19.133Z,9.90
2023-03-24T17:38:47.948Z,9.90
2023-03-24T17:41:14.829Z,9.90
2023-03-24T17:43:41.834Z,9.90
2023-03-24T17:46:08.531Z,9.90
2023-03-24T17:48:36.662Z,9.90
2023-03-24T17:51:03.884Z,9.90
2023-03-24T17:53:33.431Z,9.80
2023-03-24T17:56:05.693Z,9.70
2023-03-24T17:58:34.263Z,9.70
2023-03-24T18:01:08.298Z,9.70
2023-03-24T18:03:37.812Z,9.70
2023-03-24T18:06:12.572Z,9.70
2023-03-24T18:08:39.790Z,9.70
2023-03-24T18:11:09.592Z,9.70
2023-03-24T18:13:37.649Z,9.70
2023-03-24T18:16:19.916Z,9.60
2023-03-24T18:18:48.960Z,9.60
2023-03-24T18:21:15.993Z,9.60
2023-03-24T18:23:42.700Z,9.60
2023-03-24T18:26:09.686Z,9.60
2023-03-24T18:28:37.855Z,9.60
2023-03-24T18:31:10.012Z,9.60
2023-03-24T18:33:36.629Z,9.60
2023-03-24T18:36:04.168Z,9.60
2023-03-24T18:38:30.898Z,9.60
2023-03-24T18:41:02.822Z,9.60
2023-03-24T18:43:40.755Z,9.60
2023-03-24T18:46:09.715Z,9.50
2023-03-24T18:48:37.733Z,9.50
2023-03-24T18:51:05.790Z,9.50
2023-03-24T18:53:34.453Z,9.50
2023-03-24T18:56:01.583Z,9.40
2023-03-24T18:58:28.809Z,9.40
2023-03-24T19:00:57.286Z,9.40
2023-03-24T19:03:26.148Z,9.50
2023-03-24T19:05:53.063Z,9.60
2023-03-24T19:08:23.018Z,9.60
2023-03-24T19:10:50.344Z,9.60
2023-03-24T19:13:17.409Z,9.70
2023-03-24T19:15:48.907Z,9.70
2023-03-24T19:18:15.890Z,9.60
2023-03-24T19:20:42.710Z,9.60
2023-03-24T19:23:09.387Z,9.60
2023-03-24T19:25:36.263Z,9.60
2023-03-24T19:28:03.041Z,9.70
2023-03-24T19:30:29.757Z,9.70
2023-03-24T19:32:57.023Z,9.70
2023-03-24T19:35:24.015Z,9.70
2023-03-24T19:37:50.903Z,9.70
2023-03-24T19:40:17.705Z,9.70
2023-03-24T19:42:45.058Z,9.70
2023-03-24T19:45:15.747Z,9.70
2023-03-24T19:47:48.592Z,9.70
2023-03-24T19:50:17.468Z,9.70
2023-03-24T19:52:46.081Z,9.60
2023-03-24T19:55:13.518Z,9.60
2023-03-24T19:57:40.948Z,9.60
2023-03-24T20:00:10.151Z,9.50
2023-03-24T20:02:37.796Z,9.50
2023-03-24T20:05:06.726Z,9.50
2023-03-24T20:07:33.676Z,9.50
2023-03-24T20:10:00.607Z,9.40
2023-03-24T20:12:27.748Z,9.40
2023-03-24T20:14:55.660Z,9.40
2023-03-24T20:17:24.701Z,9.40
2023-03-24T20:19:52.915Z,9.50
2023-03-24T20:22:19.648Z,9.50
2023-03-24T20:24:48.086Z,9.40
2023-03-24T20:27:19.064Z,9.40
2023-03-24T20:29:46.173Z,9.40
2023-03-24T20:32:13.182Z,9.30
2023-03-24T20:34:40.155Z,9.30
2023-03-24T20:37:07.267Z,9.20
2023-03-24T20:39:34.627Z,9.20
2023-03-24T20:42:02.035Z,9.20
2023-03-24T20:44:29.508Z,9.30
2023-03-24T20:46:57.138Z,9.30
2023-03-24T20:49:25.599Z,9.20
2023-03-24T20:51:52.640Z,9.20
2023-03-24T20:54:19.471Z,9.20
2023-03-24T20:56:46.694Z,9.10
2023-03-24T20:59:13.792Z,9.20
2023-03-24T21:01:41.926Z,9.30
2023-03-24T21:04:09.986Z,9.40
2023-03-24T21:06:40.435Z,9.30
2023-03-24T21:09:07.727Z,9.30
2023-03-24T21:11:34.623Z,9.20
2023-03-24T21:14:02.931Z,9.20
2023-03-24T21:16:33.768Z,9.20
2023-03-24T21:19:01.717Z,9.30
2023-03-24T21:21:28.780Z,9.30
2023-03-24T21:23:57.359Z,9.40
2023-03-24T21:26:25.196Z,9.30
2023-03-24T21:28:54.983Z,9.40
2023-03-24T21:31:24.858Z,9.30
2023-03-24T21:33:53.497Z,9.30
2023-03-24T21:36:21.753Z,9.30
2023-03-24T21:38:49.578Z,9.30
2023-03-24T21:41:18.221Z,9.40
2023-03-24T21:43:46.870Z,9.40
2023-03-24T21:46:20.915Z,9.40
2023-03-24T21:48:50.198Z,9.40
2023-03-24T21:51:25.756Z,9.40
2023-03-24T21:53:56.653Z,9.50
2023-03-24T21:56:23.367Z,9.60
2023-03-24T21:58:52.127Z,9.50
2023-03-24T22:01:19.093Z,9.60
2023-03-24T22:03:46.488Z,9.60
2023-03-24T22:06:13.730Z,9.50
2023-03-24T22:08:43.437Z,9.60
2023-03-24T22:11:10.984Z,9.50
2023-03-24T22:13:39.539Z,9.50
2023-03-24T22:16:07.237Z,9.60
2023-03-24T22:18:35.642Z,9.70
2023-03-24T22:21:06.764Z,9.70
2023-03-24T22:23:36.599Z,9.70
2023-03-24T22:26:08.940Z,9.70
2023-03-24T22:28:36.894Z,9.60
2023-03-24T22:31:15.995Z,9.70
2023-03-24T22:33:43.262Z,9.70
2023-03-24T22:36:10.749Z,9.70
2023-03-24T22:38:37.573Z,9.70
2023-03-24T22:41:07.276Z,9.60
2023-03-24T22:43:35.637Z,9.70
2023-03-24T22:46:02.883Z,9.70
2023-03-24T22:48:29.690Z,9.70
2023-03-24T22:50:56.524Z,9.70
2023-03-24T22:53:23.681Z,9.80
2023-03-24T22:55:51.875Z,9.70
2023-03-24T22:58:18.921Z,9.80
2023-03-24T23:00:48.961Z,9.70
2023-03-24T23:03:16.030Z,9.70
2023-03-24T23:05:46.536Z,9.60
2023-03-24T23:08:15.134Z,9.60
2023-03-24T23:10:44.545Z,9.70
2023-03-24T23:13:11.786Z,9.60
2023-03-24T23:15:39.508Z,9.60
2023-03-24T23:18:06.193Z,9.60
2023-03-24T23:20:33.165Z,9.70
2023-03-24T23:23:01.160Z,9.60
2023-03-24T23:25:30.740Z,9.60
2023-03-24T23:27:58.348Z,9.60
2023-03-24T23:30:25.191Z,9.50
2023-03-24T23:32:51.953Z,9.50
2023-03-24T23:35:19.099Z,9.60
2023-03-24T23:37:46.378Z,9.50
2023-03-24T23:40:14.964Z,9.50
2023-03-24T23:42:44.626Z,9.50
2023-03-24T23:45:14.404Z,9.50
2023-03-24T23:47:46.973Z,9.50
2023-03-24T23:50:17.134Z,9.50
2023-03-24T23:52:44.018Z,9.40
2023-03-24T23:55:12.435Z,9.40
2023-03-24T23:57:40.262Z,9.40
